Current Weather

Phoenix Sky Harbor Intl

Phoenix, Arizona (KPHX)

Report from: Thursday, July 18, 2024 5:51 AM MST
Current time: Thursday, July 18, 2024 6:35 AM MST

Nearby weather – Weather history – Daily summaries
Weather forecast

Temperature34.4°C (93.9°F)
Heat index34.1°C (93.4°F)
Dew point15.0°C (59.0°F)
Winds 5 kts (2.6 m/s, 5.8 mph) East-Northeast (60°)
Visibility10 mi. (16.1 km)
Clouds Few clouds 8,000 ft. (2,438 m)
Ceiling: Broken clouds 14,000 ft. (4,267 m)
Broken clouds 25,000 ft. (7,620 m)
Altimeter29.88 in.Hg (1012 mB)
Relative humidity31 %
Density altitude2,569 ft. (783 m)
Sea-level pressure100.9 kPa (1009 mB, 29.81 in.Hg)
Remarks Automated weather observing station with precipitation discriminator
Lightning observed
Distant southwest cumulonimbus clouds observed distant south southwest towering cumulus clouds observed distant east distant northeast east and southwest
Flight conditions Visual Meteorological Conditions
Raw dataKPHX 181251Z 06005KT 10SM FEW080 BKN140 BKN250 34/15 A2988 RMK AO2 LTG DSNT SW SLP094 CB DSNT S-SW TCU DSNT E SHRA DSNT NE-E AND SW T03440150
An error has occurred. This application may no longer respond until reloaded. Reload 🗙